createdAt,value
2016-04-28T00:00:51.825Z,1004.27
2016-04-28T00:01:51.796Z,1004.22
2016-04-28T00:02:51.782Z,1004.27
2016-04-28T00:03:51.770Z,1004.24
2016-04-28T00:04:51.758Z,1004.27
2016-04-28T00:05:51.729Z,1004.25
2016-04-28T00:06:51.715Z,1004.27
2016-04-28T00:07:51.703Z,1004.3
2016-04-28T00:08:51.674Z,1004.28
2016-04-28T00:09:51.660Z,1004.29
2016-04-28T00:10:51.648Z,1004.3
2016-04-28T00:11:51.635Z,1004.32
2016-04-28T00:12:51.607Z,1004.35
2016-04-28T00:13:51.594Z,1004.34
2016-04-28T00:14:51.581Z,1004.36
2016-04-28T00:15:51.551Z,1004.34
2016-04-28T00:16:51.540Z,1004.3
2016-04-28T00:17:51.526Z,1004.34
2016-04-28T00:18:51.514Z,1004.36
2016-04-28T00:19:51.484Z,1004.35
2016-04-28T00:20:51.472Z,1004.32
2016-04-28T00:21:51.459Z,1004.34
2016-04-28T00:22:51.446Z,1004.33
2016-04-28T00:23:51.417Z,1004.33
2016-04-28T00:24:51.405Z,1004.32
2016-04-28T00:25:51.392Z,1004.31
2016-04-28T00:26:51.379Z,1004.3
2016-04-28T00:27:51.350Z,1004.3
2016-04-28T00:28:51.336Z,1004.3
2016-04-28T00:29:51.325Z,1004.32
2016-04-28T00:30:51.296Z,1004.3
2016-04-28T00:31:51.283Z,1004.35
2016-04-28T00:32:51.269Z,1004.34
2016-04-28T00:33:51.257Z,1004.3
2016-04-28T00:34:51.228Z,1004.34
2016-04-28T00:35:51.215Z,1004.35
2016-04-28T00:36:51.202Z,1004.35
2016-04-28T00:37:51.190Z,1004.38
2016-04-28T00:38:51.161Z,1004.37
2016-04-28T00:39:51.148Z,1004.38
2016-04-28T00:40:52.073Z,1004.38
2016-04-28T00:41:51.168Z,1004.41
2016-04-28T00:42:51.094Z,1004.41
2016-04-28T00:43:51.081Z,1004.4
2016-04-28T00:44:51.068Z,1004.4
2016-04-28T00:45:51.039Z,1004.41
2016-04-28T00:46:51.026Z,1004.43
2016-04-28T00:47:51.013Z,1004.45
2016-04-28T00:48:51.000Z,1004.46
2016-04-28T00:49:50.972Z,1004.47
2016-04-28T00:50:50.959Z,1004.5
2016-04-28T00:51:50.946Z,1004.45
2016-04-28T00:52:50.917Z,1004.43
2016-04-28T00:53:50.904Z,1004.48
2016-04-28T00:54:50.892Z,1004.48
2016-04-28T00:55:52.019Z,1004.47
2016-04-28T00:56:51.256Z,1004.49
2016-04-28T00:57:50.837Z,1004.5
2016-04-28T00:58:50.824Z,1004.52
2016-04-28T00:59:50.795Z,1004.56
2016-04-28T01:00:50.783Z,1004.56
2016-04-28T01:01:50.769Z,1004.54
2016-04-28T01:02:50.757Z,1004.55
2016-04-28T01:03:50.728Z,1004.54
2016-04-28T01:04:50.716Z,1004.51
2016-04-28T01:05:50.702Z,1004.52
2016-04-28T01:06:50.674Z,1004.54
2016-04-28T01:07:50.660Z,1004.57
2016-04-28T01:08:50.648Z,1004.61
2016-04-28T01:09:50.619Z,1004.59
2016-04-28T01:10:50.606Z,1004.58
2016-04-28T01:11:50.593Z,1004.59
2016-04-28T01:12:50.580Z,1004.58
2016-04-28T01:13:50.552Z,1004.53
2016-04-28T01:14:50.539Z,1004.56
2016-04-28T01:15:50.526Z,1004.57
2016-04-28T01:16:50.498Z,1004.57
2016-04-28T01:17:50.485Z,1004.56
2016-04-28T01:18:50.471Z,1004.55
2016-04-28T01:19:50.459Z,1004.55
2016-04-28T01:20:50.430Z,1004.57
2016-04-28T01:21:50.417Z,1004.6
2016-04-28T01:22:50.404Z,1004.6
2016-04-28T01:23:50.375Z,1004.59
2016-04-28T01:24:50.362Z,1004.57
2016-04-28T01:25:50.350Z,1004.63
2016-04-28T01:26:50.322Z,1004.61
2016-04-28T01:27:50.308Z,1004.59
2016-04-28T01:28:50.295Z,1004.59
2016-04-28T01:29:50.267Z,1004.6
2016-04-28T01:30:50.254Z,1004.64
2016-04-28T01:31:50.241Z,1004.61
2016-04-28T01:32:50.212Z,1004.59
2016-04-28T01:33:50.199Z,1004.58
2016-04-28T01:34:50.186Z,1004.58
2016-04-28T01:35:50.158Z,1004.63
2016-04-28T01:36:50.144Z,1004.62
2016-04-28T01:37:50.133Z,1004.6
2016-04-28T01:38:50.104Z,1004.57
2016-04-28T01:39:50.091Z,1004.56
2016-04-28T01:40:50.437Z,1004.59
2016-04-28T01:41:50.049Z,1004.57
2016-04-28T01:42:50.036Z,1004.58
2016-04-28T01:43:50.024Z,1004.59
2016-04-28T01:44:49.995Z,1004.6
2016-04-28T01:45:49.981Z,1004.55
2016-04-28T01:46:49.969Z,1004.55
2016-04-28T01:47:49.940Z,1004.58
2016-04-28T01:48:49.927Z,1004.54
2016-04-28T01:49:49.914Z,1004.54
2016-04-28T01:50:49.902Z,1004.59
2016-04-28T01:51:49.873Z,1004.58
2016-04-28T01:52:49.859Z,1004.59
2016-04-28T01:53:49.832Z,1004.6
2016-04-28T01:54:49.818Z,1004.59
2016-04-28T01:55:49.806Z,1004.6
2016-04-28T01:56:50.667Z,1004.57
2016-04-28T01:57:49.764Z,1004.61
2016-04-28T01:58:49.750Z,1004.62
2016-04-28T01:59:49.754Z,1004.66
2016-04-28T02:00:49.709Z,1004.62
2016-04-28T02:01:49.696Z,1004.62
2016-04-28T02:02:49.669Z,1004.66
2016-04-28T02:03:49.655Z,1004.64
2016-04-28T02:04:49.642Z,1004.67
2016-04-28T02:05:49.613Z,1004.61
2016-04-28T02:06:49.600Z,1004.67
2016-04-28T02:07:49.603Z,1004.7
2016-04-28T02:08:49.560Z,1004.68
2016-04-28T02:09:49.546Z,1004.75
2016-04-28T02:10:49.893Z,1004.7
2016-04-28T02:11:49.693Z,1004.73
2016-04-28T02:12:49.491Z,1004.71
2016-04-28T02:13:49.463Z,1004.73
2016-04-28T02:14:49.450Z,1004.77
2016-04-28T02:15:49.438Z,1004.75
2016-04-28T02:16:49.409Z,1004.77
2016-04-28T02:17:49.396Z,1004.78
2016-04-28T02:18:49.383Z,1004.78
2016-04-28T02:19:49.354Z,1004.77
2016-04-28T02:20:49.342Z,1004.78
2016-04-28T02:21:49.328Z,1004.77
2016-04-28T02:22:49.306Z,1004.81
2016-04-28T02:23:49.293Z,1004.79
2016-04-28T02:24:49.265Z,1004.81
2016-04-28T02:25:49.251Z,1004.81
2016-04-28T02:26:49.223Z,1004.82
2016-04-28T02:27:49.209Z,1004.83
2016-04-28T02:28:49.198Z,1004.8
2016-04-28T02:29:49.168Z,1004.82
2016-04-28T02:30:49.156Z,1004.82
2016-04-28T02:31:49.142Z,1004.82
2016-04-28T02:32:49.129Z,1004.78
2016-04-28T02:33:49.101Z,1004.8
2016-04-28T02:34:49.088Z,1004.8
2016-04-28T02:35:49.060Z,1004.8
2016-04-28T02:36:49.047Z,1004.82
2016-04-28T02:37:49.034Z,1004.83
2016-04-28T02:38:49.005Z,1004.85
2016-04-28T02:39:48.991Z,1004.8
2016-04-28T02:40:49.870Z,1004.79
2016-04-28T02:41:48.951Z,1004.8
2016-04-28T02:42:48.922Z,1004.8
2016-04-28T02:43:48.908Z,1004.78
2016-04-28T02:44:48.897Z,1004.79
2016-04-28T02:45:48.868Z,1004.8
2016-04-28T02:46:48.855Z,1004.75
2016-04-28T02:47:48.841Z,1004.73
2016-04-28T02:48:48.814Z,1004.76
2016-04-28T02:49:48.800Z,1004.75
2016-04-28T02:50:48.771Z,1004.78
2016-04-28T02:51:48.774Z,1004.82
2016-04-28T02:52:48.745Z,1004.83
2016-04-28T02:53:48.718Z,1004.79
2016-04-28T02:54:48.704Z,1004.82
2016-04-28T02:55:48.691Z,1004.84
2016-04-28T02:56:48.679Z,1004.81
2016-04-28T02:57:48.650Z,1004.85
2016-04-28T02:58:48.621Z,1004.86
2016-04-28T02:59:48.608Z,1004.87
2016-04-28T03:00:48.596Z,1004.89
2016-04-28T03:01:48.567Z,1004.86
2016-04-28T03:02:48.554Z,1004.86
2016-04-28T03:03:48.525Z,1004.87
2016-04-28T03:04:48.512Z,1004.85
2016-04-28T03:05:48.500Z,1004.85
2016-04-28T03:06:48.470Z,1004.89
2016-04-28T03:07:48.458Z,1004.87
2016-04-28T03:08:48.430Z,1004.86
2016-04-28T03:09:48.417Z,1004.86
2016-04-28T03:10:48.403Z,1004.89
2016-04-28T03:11:48.391Z,1004.92
2016-04-28T03:12:48.362Z,1004.88
2016-04-28T03:13:48.349Z,1004.9
2016-04-28T03:14:48.321Z,1004.89
2016-04-28T03:15:48.308Z,1004.83
2016-04-28T03:16:48.279Z,1004.89
2016-04-28T03:17:48.266Z,1004.87
2016-04-28T03:18:48.253Z,1004.87
2016-04-28T03:19:48.224Z,1004.88
2016-04-28T03:20:48.212Z,1004.89
2016-04-28T03:21:48.183Z,1004.89
2016-04-28T03:22:48.171Z,1004.84
2016-04-28T03:23:48.157Z,1004.85
2016-04-28T03:24:48.129Z,1004.88
2016-04-28T03:25:48.116Z,1004.89
2016-04-28T03:26:48.087Z,1004.89
2016-04-28T03:27:48.090Z,1004.92
2016-04-28T03:28:48.045Z,1004.87
2016-04-28T03:29:48.033Z,1004.91
2016-04-28T03:30:48.020Z,1004.9
2016-04-28T03:31:47.992Z,1004.89
2016-04-28T03:32:47.978Z,1004.9
2016-04-28T03:33:47.950Z,1004.9
2016-04-28T03:34:47.937Z,1004.88
2016-04-28T03:35:47.923Z,1004.92
2016-04-28T03:36:47.895Z,1004.87
2016-04-28T03:37:47.883Z,1004.9
2016-04-28T03:38:47.870Z,1004.87
2016-04-28T03:39:47.841Z,1004.9
2016-04-28T03:40:47.827Z,1004.91
2016-04-28T03:41:47.800Z,1004.91
2016-04-28T03:42:47.786Z,1004.89
2016-04-28T03:43:47.758Z,1004.9
2016-04-28T03:44:47.744Z,1004.89
2016-04-28T03:45:47.733Z,1004.9
2016-04-28T03:46:47.703Z,1004.92
2016-04-28T03:47:47.690Z,1004.92
2016-04-28T03:48:47.663Z,1004.97
2016-04-28T03:49:47.649Z,1004.95
2016-04-28T03:50:47.636Z,1004.92
2016-04-28T03:51:47.607Z,1004.93
2016-04-28T03:52:47.594Z,1004.96
2016-04-28T03:53:47.566Z,1004.94
2016-04-28T03:54:47.553Z,1004.95
2016-04-28T03:55:47.524Z,1004.98
2016-04-28T03:56:47.512Z,1005.01
2016-04-28T03:57:47.483Z,1005.05
2016-04-28T03:58:47.470Z,1004.99
2016-04-28T03:59:47.457Z,1004.99
2016-04-28T04:00:47.429Z,1005.04
2016-04-28T04:01:47.416Z,1005.03
2016-04-28T04:02:47.403Z,1005.04
2016-04-28T04:03:47.374Z,1005.02
2016-04-28T04:04:47.346Z,1005.08
2016-04-28T04:05:47.333Z,1005.06
2016-04-28T04:06:47.320Z,1005.06
2016-04-28T04:07:47.291Z,1005.08
2016-04-28T04:08:47.278Z,1005.1
2016-04-28T04:09:47.265Z,1005.11
2016-04-28T04:10:47.237Z,1005.1
2016-04-28T04:11:47.208Z,1005.12
2016-04-28T04:12:47.195Z,1005.15
2016-04-28T04:13:47.183Z,1005.1
2016-04-28T04:14:47.153Z,1005.14
2016-04-28T04:15:47.141Z,1005.11
2016-04-28T04:16:47.113Z,1005.16
2016-04-28T04:17:47.100Z,1005.17
2016-04-28T04:18:47.071Z,1005.19
2016-04-28T04:19:47.057Z,1005.2
2016-04-28T04:20:47.045Z,1005.2
2016-04-28T04:21:47.016Z,1005.2
2016-04-28T04:22:47.004Z,1005.2
2016-04-28T04:23:46.974Z,1005.2
2016-04-28T04:24:46.963Z,1005.19
2016-04-28T04:25:46.933Z,1005.25
2016-04-28T04:26:47.343Z,1005.28
2016-04-28T04:27:46.907Z,1005.23
2016-04-28T04:28:46.879Z,1005.21
2016-04-28T04:29:46.866Z,1005.28
2016-04-28T04:30:46.837Z,1005.27
2016-04-28T04:31:46.824Z,1005.27
2016-04-28T04:32:46.796Z,1005.29
2016-04-28T04:33:46.783Z,1005.28
2016-04-28T04:34:46.770Z,1005.32
2016-04-28T04:35:46.741Z,1005.3
2016-04-28T04:36:46.729Z,1005.27
2016-04-28T04:37:46.700Z,1005.28
2016-04-28T04:38:46.687Z,1005.26
2016-04-28T04:39:46.659Z,1005.29
2016-04-28T04:40:46.645Z,1005.27
2016-04-28T04:41:46.633Z,1005.29
2016-04-28T04:42:46.603Z,1005.3
2016-04-28T04:43:46.591Z,1005.31
2016-04-28T04:44:46.563Z,1005.32
2016-04-28T04:45:46.550Z,1005.31
2016-04-28T04:46:46.521Z,1005.3
2016-04-28T04:47:46.508Z,1005.34
2016-04-28T04:48:46.495Z,1005.29
2016-04-28T04:49:46.466Z,1005.35
2016-04-28T04:50:46.454Z,1005.36
2016-04-28T04:51:46.425Z,1005.4
2016-04-28T04:52:46.413Z,1005.39
2016-04-28T04:53:46.383Z,1005.39
2016-04-28T04:54:46.371Z,1005.39
2016-04-28T04:55:46.358Z,1005.42
2016-04-28T04:56:46.329Z,1005.47
2016-04-28T04:57:46.316Z,1005.49
2016-04-28T04:58:46.287Z,1005.55
2016-04-28T04:59:46.275Z,1005.54
2016-04-28T05:00:46.262Z,1005.58
2016-04-28T05:01:46.234Z,1005.6
2016-04-28T05:02:46.220Z,1005.64
2016-04-28T05:03:46.192Z,1005.61
2016-04-28T05:04:46.179Z,1005.63
2016-04-28T05:05:46.150Z,1005.65
2016-04-28T05:06:46.137Z,1005.67
2016-04-28T05:07:46.125Z,1005.66
2016-04-28T05:08:46.096Z,1005.69
2016-04-28T05:09:46.083Z,1005.64
2016-04-28T05:10:46.053Z,1005.65
2016-04-28T05:11:46.041Z,1005.69
2016-04-28T05:12:46.029Z,1005.68
2016-04-28T05:13:46.000Z,1005.69
2016-04-28T05:14:45.986Z,1005.7
2016-04-28T05:15:45.975Z,1005.71
2016-04-28T05:16:45.961Z,1005.76
2016-04-28T05:17:45.933Z,1005.73
2016-04-28T05:18:45.919Z,1005.77
2016-04-28T05:19:45.908Z,1005.81
2016-04-28T05:20:45.893Z,1005.8
2016-04-28T05:21:45.866Z,1005.82
2016-04-28T05:22:45.852Z,1005.82
2016-04-28T05:23:45.838Z,1005.8
2016-04-28T05:24:45.826Z,1005.8
2016-04-28T05:25:45.814Z,1005.78
2016-04-28T05:26:46.004Z,1005.81
2016-04-28T05:27:45.787Z,1005.79
2016-04-28T05:28:45.775Z,1005.81
2016-04-28T05:29:45.762Z,1005.84
2016-04-28T05:30:45.749Z,1005.85
2016-04-28T05:31:45.735Z,1005.82
2016-04-28T05:32:45.724Z,1005.85
2016-04-28T05:33:45.709Z,1005.84
2016-04-28T05:34:45.698Z,1005.83
2016-04-28T05:35:45.684Z,1005.87
2016-04-28T05:36:45.686Z,1005.83
2016-04-28T05:37:45.673Z,1005.82
2016-04-28T05:38:45.662Z,1005.81
2016-04-28T05:39:45.648Z,1005.85
2016-04-28T05:40:45.634Z,1005.85
2016-04-28T05:41:46.216Z,1005.88
2016-04-28T05:42:45.625Z,1005.88
2016-04-28T05:43:45.612Z,1005.88
2016-04-28T05:44:45.600Z,1005.86
2016-04-28T05:45:45.586Z,1005.87
2016-04-28T05:46:45.588Z,1005.87
2016-04-28T05:47:45.576Z,1005.88
2016-04-28T05:48:45.563Z,1005.86
2016-04-28T05:49:45.550Z,1005.87
2016-04-28T05:50:45.552Z,1005.87
2016-04-28T05:51:45.540Z,1005.89
2016-04-28T05:52:45.527Z,1005.92
2016-04-28T05:53:45.514Z,1005.91
2016-04-28T05:54:45.516Z,1005.88
2016-04-28T05:55:45.519Z,1005.87
2016-04-28T05:56:45.491Z,1005.89
2016-04-28T05:57:45.477Z,1005.91
2016-04-28T05:58:45.480Z,1005.88
2016-04-28T05:59:45.483Z,1005.92
2016-04-28T06:00:45.460Z,1005.89
2016-04-28T06:01:45.504Z,1005.93
2016-04-28T06:02:45.531Z,1005.93
2016-04-28T06:03:45.574Z,1005.97
2016-04-28T06:04:45.603Z,1006
2016-04-28T06:05:45.642Z,1006.03
2016-04-28T06:06:45.643Z,1006.01
2016-04-28T06:07:45.661Z,1006.04
2016-04-28T06:08:45.664Z,1006.06
2016-04-28T06:09:45.680Z,1006.12
2016-04-28T06:10:45.681Z,1006.1
2016-04-28T06:11:45.860Z,1006.12
2016-04-28T06:12:45.680Z,1006.12
2016-04-28T06:13:45.687Z,1006.15
2016-04-28T06:14:45.681Z,1006.13
2016-04-28T06:15:45.687Z,1006.15
2016-04-28T06:16:45.692Z,1006.15
2016-04-28T06:17:45.680Z,1006.14
2016-04-28T06:18:45.685Z,1006.17
2016-04-28T06:19:45.674Z,1006.15
2016-04-28T06:20:45.678Z,1006.13
2016-04-28T06:21:45.682Z,1006.19
2016-04-28T06:22:45.670Z,1006.15
2016-04-28T06:23:45.673Z,1006.15
2016-04-28T06:24:45.677Z,1006.18
2016-04-28T06:25:45.665Z,1006.19
2016-04-28T06:26:45.667Z,1006.15
2016-04-28T06:27:45.656Z,1006.21
2016-04-28T06:28:45.658Z,1006.26
2016-04-28T06:29:45.662Z,1006.17
2016-04-28T06:30:45.665Z,1006.2
2016-04-28T06:31:45.651Z,1006.22
2016-04-28T06:32:45.655Z,1006.25
2016-04-28T06:33:45.657Z,1006.27
2016-04-28T06:34:45.660Z,1006.25
2016-04-28T06:35:45.647Z,1006.31
2016-04-28T06:36:45.649Z,1006.29
2016-04-28T06:37:45.651Z,1006.31
2016-04-28T06:38:45.654Z,1006.35
2016-04-28T06:39:45.657Z,1006.34
2016-04-28T06:40:45.645Z,1006.38
2016-04-28T06:41:45.647Z,1006.46
2016-04-28T06:42:45.634Z,1006.45
2016-04-28T06:43:45.653Z,1006.48
2016-04-28T06:44:45.639Z,1006.41
2016-04-28T06:45:45.642Z,1006.44
2016-04-28T06:46:45.629Z,1006.43
2016-04-28T06:47:45.632Z,1006.42
2016-04-28T06:48:45.634Z,1006.43
2016-04-28T06:49:45.637Z,1006.42
2016-04-28T06:50:45.639Z,1006.42
2016-04-28T06:51:45.628Z,1006.42
2016-04-28T06:52:45.630Z,1006.4
2016-04-28T06:53:45.633Z,1006.43
2016-04-28T06:54:45.635Z,1006.47
2016-04-28T06:55:45.622Z,1006.41
2016-04-28T06:56:45.625Z,1006.46
2016-04-28T06:57:45.627Z,1006.48
2016-04-28T06:58:45.630Z,1006.44
2016-04-28T06:59:45.617Z,1006.45
2016-04-28T07:00:45.620Z,1006.45
2016-04-28T07:01:45.624Z,1006.46
2016-04-28T07:02:45.626Z,1006.46
2016-04-28T07:03:45.628Z,1006.45
2016-04-28T07:04:45.616Z,1006.43
2016-04-28T07:05:45.618Z,1006.44
2016-04-28T07:06:45.620Z,1006.44
2016-04-28T07:07:45.623Z,1006.43
2016-04-28T07:08:45.626Z,1006.41
2016-04-28T07:09:45.612Z,1006.42
2016-04-28T07:10:45.616Z,1006.41
2016-04-28T07:11:46.337Z,1006.42
2016-04-28T07:12:48.246Z,1006.48
2016-04-28T07:13:45.609Z,1006.45
2016-04-28T07:14:45.611Z,1006.43
2016-04-28T07:15:45.614Z,1006.45
2016-04-28T07:16:45.616Z,1006.42
2016-04-28T07:17:45.619Z,1006.46
2016-04-28T07:18:45.606Z,1006.49
2016-04-28T07:19:45.608Z,1006.44
2016-04-28T07:20:45.611Z,1006.45
2016-04-28T07:21:45.614Z,1006.42
2016-04-28T07:22:45.618Z,1006.48
2016-04-28T07:23:45.605Z,1006.49
2016-04-28T07:24:45.607Z,1006.47
2016-04-28T07:25:45.610Z,1006.51
2016-04-28T07:26:45.629Z,1006.46
2016-04-28T07:27:45.600Z,1006.47
2016-04-28T07:28:45.602Z,1006.46
2016-04-28T07:29:45.605Z,1006.49
2016-04-28T07:30:45.608Z,1006.51
2016-04-28T07:31:45.611Z,1006.59
2016-04-28T07:32:45.614Z,1006.52
2016-04-28T07:33:45.601Z,1006.49
2016-04-28T07:34:45.603Z,1006.51
2016-04-28T07:35:45.591Z,1006.47
2016-04-28T07:36:45.593Z,1006.49
2016-04-28T07:37:45.596Z,1006.53
2016-04-28T07:38:45.598Z,1006.54
2016-04-28T07:39:45.601Z,1006.51
2016-04-28T07:40:45.588Z,1006.5
2016-04-28T07:41:46.763Z,1006.53
2016-04-28T07:42:45.593Z,1006.51
2016-04-28T07:43:45.580Z,1006.53
2016-04-28T07:44:45.583Z,1006.49
2016-04-28T07:45:45.586Z,1006.51
2016-04-28T07:46:45.589Z,1006.55
2016-04-28T07:47:45.576Z,1006.55
2016-04-28T07:48:45.578Z,1006.51
2016-04-28T07:49:45.581Z,1006.52
2016-04-28T07:50:45.584Z,1006.55
2016-04-28T07:51:45.570Z,1006.59
2016-04-28T07:52:45.573Z,1006.61
2016-04-28T07:53:45.576Z,1006.58
2016-04-28T07:54:45.563Z,1006.62
2016-04-28T07:55:45.566Z,1006.61
2016-04-28T07:56:45.569Z,1006.59
2016-04-28T07:57:45.571Z,1006.62
2016-04-28T07:58:45.559Z,1006.6
2016-04-28T07:59:45.561Z,1006.58
2016-04-28T08:00:45.564Z,1006.6
2016-04-28T08:01:45.551Z,1006.65
2016-04-28T08:02:45.553Z,1006.63
2016-04-28T08:03:45.556Z,1006.61
2016-04-28T08:04:45.558Z,1006.63
2016-04-28T08:05:45.546Z,1006.67
2016-04-28T08:06:45.549Z,1006.62
2016-04-28T08:07:45.594Z,1006.63
2016-04-28T08:08:45.565Z,1006.66
2016-04-28T08:09:45.537Z,1006.67
2016-04-28T08:10:45.540Z,1006.68
2016-04-28T08:11:45.526Z,1006.62
2016-04-28T08:12:45.607Z,1006.64
2016-04-28T08:13:45.531Z,1006.61
2016-04-28T08:14:45.520Z,1006.64
2016-04-28T08:15:45.522Z,1006.64
2016-04-28T08:16:45.540Z,1006.63
2016-04-28T08:17:45.528Z,1006.56
2016-04-28T08:18:45.515Z,1006.6
2016-04-28T08:19:45.517Z,1006.6
2016-04-28T08:20:45.503Z,1006.6
2016-04-28T08:21:45.506Z,1006.56
2016-04-28T08:22:45.509Z,1006.59
2016-04-28T08:23:45.512Z,1006.58
2016-04-28T08:24:45.499Z,1006.58
2016-04-28T08:25:45.502Z,1006.65
2016-04-28T08:26:45.505Z,1006.63
2016-04-28T08:27:45.492Z,1006.61
2016-04-28T08:28:45.495Z,1006.65
2016-04-28T08:29:45.482Z,1006.65
2016-04-28T08:30:45.485Z,1006.67
2016-04-28T08:31:45.487Z,1006.62
2016-04-28T08:32:45.474Z,1006.66
2016-04-28T08:33:45.477Z,1006.63
2016-04-28T08:34:45.463Z,1006.62
2016-04-28T08:35:45.466Z,1006.67
2016-04-28T08:36:45.454Z,1006.61
2016-04-28T08:37:45.440Z,1006.63
2016-04-28T08:38:45.443Z,1006.65
2016-04-28T08:39:45.429Z,1006.6
2016-04-28T08:40:45.433Z,1006.67
2016-04-28T08:41:45.421Z,1006.63
2016-04-28T08:42:45.423Z,1006.59
2016-04-28T08:43:45.410Z,1006.61
2016-04-28T08:44:45.412Z,1006.61
2016-04-28T08:45:45.415Z,1006.61
2016-04-28T08:46:45.403Z,1006.62
2016-04-28T08:47:45.405Z,1006.65
2016-04-28T08:48:45.408Z,1006.72
2016-04-28T08:49:45.395Z,1006.66
2016-04-28T08:50:45.398Z,1006.68
2016-04-28T08:51:45.416Z,1006.64
2016-04-28T08:52:45.387Z,1006.65
2016-04-28T08:53:45.374Z,1006.67
2016-04-28T08:54:45.377Z,1006.66
2016-04-28T08:55:45.364Z,1006.63
2016-04-28T08:56:45.367Z,1006.6
2016-04-28T08:57:45.353Z,1006.59
2016-04-28T08:58:45.341Z,1006.58
2016-04-28T08:59:45.343Z,1006.63
2016-04-28T09:00:45.330Z,1006.67
2016-04-28T09:01:45.333Z,1006.66
2016-04-28T09:02:45.321Z,1006.66
2016-04-28T09:03:45.308Z,1006.64
2016-04-28T09:04:45.294Z,1006.67
2016-04-28T09:05:45.297Z,1006.67
2016-04-28T09:06:45.285Z,1006.69
2016-04-28T09:07:45.271Z,1006.68
2016-04-28T09:08:45.274Z,1006.66
2016-04-28T09:09:45.260Z,1006.68
2016-04-28T09:10:45.248Z,1006.7
2016-04-28T09:11:45.251Z,1006.73
2016-04-28T09:12:45.238Z,1006.71
2016-04-28T09:13:45.226Z,1006.67
2016-04-28T09:14:45.212Z,1006.64
2016-04-28T09:15:45.199Z,1006.69
2016-04-28T09:16:45.186Z,1006.69
2016-04-28T09:17:45.173Z,1006.64
2016-04-28T09:18:45.176Z,1006.64
2016-04-28T09:19:45.162Z,1006.75
2016-04-28T09:20:45.150Z,1006.75
2016-04-28T09:21:45.153Z,1006.68
2016-04-28T09:22:45.139Z,1006.7
2016-04-28T09:23:45.127Z,1006.72
2016-04-28T09:24:45.130Z,1006.69
2016-04-28T09:25:45.117Z,1006.73
2016-04-28T09:26:45.103Z,1006.7
2016-04-28T09:27:45.106Z,1006.69
2016-04-28T09:28:45.093Z,1006.71
2016-04-28T09:29:45.096Z,1006.68
2016-04-28T09:30:45.082Z,1006.73
2016-04-28T09:31:45.069Z,1006.7
2016-04-28T09:32:45.073Z,1006.67
2016-04-28T09:33:45.075Z,1006.69
2016-04-28T09:34:45.062Z,1006.71
2016-04-28T09:35:45.065Z,1006.75
2016-04-28T09:36:45.052Z,1006.73
2016-04-28T09:37:45.055Z,1006.73
2016-04-28T09:38:45.042Z,1006.72
2016-04-28T09:39:45.045Z,1006.7
2016-04-28T09:40:45.047Z,1006.77
2016-04-28T09:41:45.034Z,1006.74
2016-04-28T09:42:45.413Z,1006.72
2016-04-28T09:43:45.024Z,1006.71
2016-04-28T09:44:45.027Z,1006.74
2016-04-28T09:45:45.014Z,1006.74
2016-04-28T09:46:45.017Z,1006.7
2016-04-28T09:47:45.019Z,1006.64
2016-04-28T09:48:45.006Z,1006.68
2016-04-28T09:49:45.009Z,1006.71
2016-04-28T09:50:45.012Z,1006.64
2016-04-28T09:51:44.998Z,1006.66
2016-04-28T09:52:45.001Z,1006.69
2016-04-28T09:53:44.989Z,1006.67
2016-04-28T09:54:44.991Z,1006.63
2016-04-28T09:55:44.994Z,1006.62
2016-04-28T09:56:45.027Z,1006.61
2016-04-28T09:57:44.983Z,1006.53
2016-04-28T09:58:44.971Z,1006.61
2016-04-28T09:59:44.974Z,1006.64
2016-04-28T10:00:44.977Z,1006.63
2016-04-28T10:01:44.963Z,1006.61
2016-04-28T10:02:44.966Z,1006.63
2016-04-28T10:03:44.953Z,1006.62
2016-04-28T10:04:44.955Z,1006.55
2016-04-28T10:05:44.943Z,1006.58
2016-04-28T10:06:44.946Z,1006.54
2016-04-28T10:07:44.933Z,1006.52
2016-04-28T10:08:44.936Z,1006.54
2016-04-28T10:09:44.938Z,1006.53
2016-04-28T10:10:44.925Z,1006.51
2016-04-28T10:11:44.928Z,1006.49
2016-04-28T10:12:46.054Z,1006.45
2016-04-28T10:13:44.917Z,1006.48
2016-04-28T10:14:44.901Z,1006.43
2016-04-28T10:15:44.905Z,1006.49
2016-04-28T10:16:44.892Z,1006.47
2016-04-28T10:17:46.006Z,1006.48
2016-04-28T10:18:44.897Z,1006.48
2016-04-28T10:19:44.884Z,1006.46
2016-04-28T10:20:44.886Z,1006.44
2016-04-28T10:21:44.890Z,1006.5
2016-04-28T10:22:44.876Z,1006.5
2016-04-28T10:23:44.879Z,1006.53
2016-04-28T10:24:44.881Z,1006.52
2016-04-28T10:25:44.870Z,1006.51
2016-04-28T10:26:44.872Z,1006.48
2016-04-28T10:27:45.359Z,1006.52
2016-04-28T10:28:44.861Z,1006.45
2016-04-28T10:29:44.880Z,1006.52
2016-04-28T10:30:44.851Z,1006.47
2016-04-28T10:31:44.853Z,1006.54
2016-04-28T10:32:44.856Z,1006.6
2016-04-28T10:33:44.844Z,1006.54
2016-04-28T10:34:44.861Z,1006.63
2016-04-28T10:35:44.849Z,1006.54
2016-04-28T10:36:44.852Z,1006.54
2016-04-28T10:37:44.839Z,1006.54
2016-04-28T10:38:44.842Z,1006.48
2016-04-28T10:39:44.843Z,1006.56
2016-04-28T10:40:44.846Z,1006.55
2016-04-28T10:41:44.834Z,1006.56
2016-04-28T10:42:44.837Z,1006.55
2016-04-28T10:43:44.839Z,1006.42
2016-04-28T10:44:44.842Z,1006.54
2016-04-28T10:45:44.845Z,1006.42
2016-04-28T10:46:44.832Z,1006.53
2016-04-28T10:47:44.851Z,1006.49
2016-04-28T10:48:44.837Z,1006.42
2016-04-28T10:49:44.840Z,1006.46
2016-04-28T10:50:44.827Z,1006.42
2016-04-28T10:51:44.829Z,1006.44
2016-04-28T10:52:44.832Z,1006.44
2016-04-28T10:53:44.834Z,1006.41
2016-04-28T10:54:44.837Z,1006.42
2016-04-28T10:55:44.825Z,1006.45
2016-04-28T10:56:44.828Z,1006.38
2016-04-28T10:57:44.830Z,1006.38
2016-04-28T10:58:44.833Z,1006.38
2016-04-28T10:59:44.820Z,1006.4
2016-04-28T11:00:44.822Z,1006.39
2016-04-28T11:01:44.825Z,1006.4
2016-04-28T11:02:44.828Z,1006.41
2016-04-28T11:03:44.831Z,1006.4
2016-04-28T11:04:44.833Z,1006.42
2016-04-28T11:05:44.820Z,1006.42
2016-04-28T11:06:44.822Z,1006.5
2016-04-28T11:07:44.825Z,1006.48
2016-04-28T11:08:44.828Z,1006.49
2016-04-28T11:09:44.830Z,1006.5
2016-04-28T11:10:44.818Z,1006.51
2016-04-28T11:11:44.836Z,1006.44
2016-04-28T11:12:44.824Z,1006.5
2016-04-28T11:13:44.826Z,1006.52
2016-04-28T11:14:44.813Z,1006.45
2016-04-28T11:15:44.816Z,1006.43
2016-04-28T11:16:44.818Z,1006.4
2016-04-28T11:17:44.806Z,1006.42
2016-04-28T11:18:44.809Z,1006.37
2016-04-28T11:19:44.811Z,1006.4
2016-04-28T11:20:44.808Z,1006.38
2016-04-28T11:21:44.810Z,1006.46
2016-04-28T11:22:44.798Z,1006.45
2016-04-28T11:23:44.801Z,1006.45
2016-04-28T11:24:44.803Z,1006.43
2016-04-28T11:25:44.790Z,1006.44
2016-04-28T11:26:44.792Z,1006.45
2016-04-28T11:27:44.795Z,1006.42
2016-04-28T11:28:44.783Z,1006.38
2016-04-28T11:29:44.785Z,1006.32
2016-04-28T11:30:44.788Z,1006.35
2016-04-28T11:31:44.774Z,1006.4
2016-04-28T11:32:44.794Z,1006.4
2016-04-28T11:33:44.781Z,1006.42
2016-04-28T11:34:44.768Z,1006.44
2016-04-28T11:35:44.770Z,1006.49
2016-04-28T11:36:44.757Z,1006.43
2016-04-28T11:37:44.759Z,1006.48
2016-04-28T11:38:44.762Z,1006.4
2016-04-28T11:39:44.734Z,1006.38
2016-04-28T11:40:44.737Z,1006.43
2016-04-28T11:41:44.740Z,1006.42
2016-04-28T11:42:44.726Z,1006.4
2016-04-28T11:43:44.729Z,1006.36
2016-04-28T11:44:44.732Z,1006.42
2016-04-28T11:45:44.719Z,1006.41
2016-04-28T11:46:44.721Z,1006.42
2016-04-28T11:47:44.709Z,1006.45
2016-04-28T11:48:44.712Z,1006.44
2016-04-28T11:49:44.698Z,1006.42
2016-04-28T11:50:44.701Z,1006.38
2016-04-28T11:51:44.689Z,1006.38
2016-04-28T11:52:44.692Z,1006.41
2016-04-28T11:53:44.694Z,1006.35
2016-04-28T11:54:44.680Z,1006.31
2016-04-28T11:55:44.667Z,1006.36
2016-04-28T11:56:44.670Z,1006.41
2016-04-28T11:57:44.673Z,1006.41
2016-04-28T11:58:44.676Z,1006.48
2016-04-28T11:59:44.663Z,1006.42
2016-04-28T12:00:44.666Z,1006.42
2016-04-28T12:01:44.653Z,1006.43
2016-04-28T12:02:44.655Z,1006.38
2016-04-28T12:03:44.689Z,1006.44
2016-04-28T12:04:44.644Z,1006.44
2016-04-28T12:05:44.647Z,1006.45
2016-04-28T12:06:44.650Z,1006.45
2016-04-28T12:07:44.653Z,1006.5
2016-04-28T12:08:44.640Z,1006.53